Spofford, Texas
Current Conditions -  °F | °C
As of 9:58 AM on Saturday 20 Dec 2014 (Local Time) from KDLF Reporting Station
Overcast Overcast  
Wind Chill: 50°   Ceiling: 900
Heat Index: 50°   Visibility: 10mi
Dew Point: 45°   Wind: 8mph
Humidity: 83%   Direction: 200°SSW
Pressure: 30.22"   Gusts: NA
Location:  28.9584°N, 100.392°W
Report Text: KDLF 201558Z AUTO 20007KT 10SM OVC009 10/07 A3022 RMK AO2 SLP232 T01000073 $
Loading
Personal Weather Stations






























Interactive Weather Map New forecast layout! Learn more

10-Day Weather Forecast

Advertisements
Track Severe Weather on mobile